• Join FlightAware (Why Join?)
  • Login
  • US Flag 
08:47AM EST


 

Airport Tracker/Info


-or-


 

Live Flight TrackerFlight Track Log ✈ CAL5898 ✈ 01-Mar-2014 ✈ ZSPD / PVG - RCTP / TPE

Flight Track Log - Related Links

Times and Time Zones

All times are in EST time to prevent confusion due to time zone crossing. See the CAL5898 flight status page for this flight to view local times or setup timezone preferences in your user account.

Time Position Orientation Groundspeed Altitude Reporting Facility
EST Latitude Longitude Course Direction KTS MPH feet Rate Location/Type
03:49PM 30.8058 121.7595 185° South  Level Estimated
03:50PM 30.6935 121.7486 185° South  Level Estimated
03:51PM 30.5812 121.7377 185° South  Level Estimated
03:52PM 30.4688 121.7269 185° South  Level Estimated
03:53PM 30.3565 121.7161 185° South  Level Estimated
03:54PM 30.2442 121.7053 185° South  Level Estimated
03:55PM 30.1318 121.6945 185° South  Level Estimated
03:56PM 30.0195 121.6838 185° South  Level Estimated
03:57PM 29.9072 121.6730 185° South  Level Estimated
03:58PM 29.7948 121.6623 185° South  Level Estimated
03:59PM 29.6825 121.6516 185° South  Level Estimated
04:00PM 29.5702 121.6410 185° South  Level Estimated
04:01PM 29.4578 121.6304 185° South  Level Estimated
04:02PM 29.3455 121.6198 185° South  Level Estimated
04:03PM 29.2332 121.6092 185° South  Level Estimated
04:04PM 29.1208 121.5986 185° South  Level Estimated
04:05PM 29.0085 121.5881 185° South  Level Estimated
04:06PM 28.8961 121.5776 185° South  Level Estimated
04:07PM 28.7838 121.5671 185° South  Level Estimated
04:08PM 28.6715 121.5566 185° South  Level Estimated
04:09PM 28.5591 121.5462 185° South  Level Estimated
04:10PM 28.4468 121.5357 185° South  Level Estimated
04:11PM 28.3344 121.5253 185° South  Level Estimated
04:12PM 28.2221 121.5150 185° South  Level Estimated
04:13PM 28.1097 121.5046 185° South  Level Estimated
04:14PM 27.9974 121.4943 185° South  Level Estimated
04:15PM 27.8850 121.4839 185° South  Level Estimated
04:16PM 27.7727 121.4737 185° South  Level Estimated
04:17PM 27.6603 121.4634 185° South  Level Estimated
04:18PM 27.5480 121.4531 185° South  Level Estimated
04:19PM 27.4356 121.4429 185° South  Level Estimated
04:20PM 27.3233 121.4327 185° South  Level Estimated
04:21PM 27.2109 121.4225 185° South  Level Estimated
04:22PM 27.0986 121.4123 185° South  Level Estimated
04:23PM 26.9862 121.4022 185° South  Level Estimated
04:24PM 26.8739 121.3921 185° South  Level Estimated
04:26PM 26.5743 121.3652 185° South  Level Estimated
04:28PM 26.4245 121.3518 185° South  Level Estimated
04:29PM 26.3121 121.3417 185° South  Level Estimated
04:30PM 26.1998 121.3317 185° South  Level Estimated
04:31PM 26.0874 121.3217 185° South  Level Estimated
04:32PM 25.9750 121.3118 185° South  Level Estimated
04:33PM 25.8627 121.3018 185° South  Level Estimated
04:34PM 25.7503 121.2919 185° South  Level Estimated
04:35PM 25.6380 121.2820 185° South  Level Estimated
04:36PM 25.5256 121.2721 185° South  Level Estimated
04:37PM 25.4132 121.2622 185° South  Level Estimated
04:38PM 25.3009 121.2523 185° South  Level Estimated
04:39PM 25.1885 121.2425 185° South  Level Estimated
04:40PM 25.0777 121.2328 185° South  Level Estimated
04:41PM 25.0777 121.2328 North  Level Estimated
04:42PM 25.0777 121.2328 North  Level Estimated
04:43PM 25.0777 121.2328 North  Level Estimated
04:44PM 25.0777 121.2328 North  Level Estimated
04:45PM 25.0777 121.2328 North  Level Estimated
04:46PM 25.0777 121.2328 North  Level Estimated
04:47PM 25.0777 121.2328 North  Level Estimated
04:48PM 25.0777 121.2328 North  Level Estimated
04:49PM 25.0777 121.2328 North  Level Estimated
04:50PM 25.0777 121.2328 North  Level Estimated
04:51PM 25.0777 121.2328 North  Level Estimated
04:52PM 25.0777 121.2328 North  Level Estimated
04:53PM 25.0777 121.2328 North  Level Estimated
04:54PM 25.0777 121.2328 North  Level Estimated
04:55PM 25.0777 121.2328 North  Level Estimated
04:56PM 25.0777 121.2328 North  Level Estimated